Toledo, Iowa
Current Conditions -  °F | °C
As of 11:53 AM on Friday 19 Dec 2014 (Local Time) from KMIW Reporting Station
Overcast Overcast  
Wind Chill: 21°   Ceiling: 3800
Heat Index: 29°   Visibility: 7mi
Dew Point: 24°   Wind: 8mph
Humidity: 82%   Direction: 150°SSE
Pressure: 30.24"   Gusts: NA
Location:  42°N, 92.58°W
Report Text: KMIW 191753Z AUTO 15007KT 7SM OVC038 M02/M04 A3024 RMK AO2 SLP254 T10171044 11017 21039 58013
Loading
Personal Weather Stations






























Interactive Weather Map New forecast layout! Learn more

10-Day Weather Forecast

Advertisements
Track Severe Weather on mobile